Clearwater, Minnesota
Current Conditions -  °F | °C
As of 6:51 AM on Wednesday 26 Nov 2014 (Local Time) from KSTC Reporting Station
Light Snow Light Snow  
Wind Chill: 16°   Ceiling: 4600
Heat Index: 23°   Visibility: 2.5mi
Dew Point: 18°   Wind: 6mph
Humidity: 80%   Direction: 20°NNE
Pressure: 30.1"   Gusts: NA
Location:  45.42°N, 94.05°W
Report Text: KSTC 261251Z AUTO 02005KT 2 1/2SM -SN OVC046 M05/M08 A3010 RMK AO2 SNB32 P0000
Loading
Personal Weather Stations






























Interactive Weather Map New forecast layout! Learn more

10-Day Weather Forecast

Advertisements
Track Severe Weather on mobile